Impacts METAR Board
IDs:

KMSP - Minneapolis-St Paul, MN, US

Updated at: 0100 UTC 24 Jun 2018
Potential Impact None Slight Moderate High
Time 23/13Z 23/14Z 23/15Z 23/16Z 23/17Z 23/18Z 23/19Z 23/20Z 23/21Z 23/22Z 23/23Z 24/00Z 24/01Z
Temp70 73 77 77 80 80 80 82 80 81 81 80 79
Dewpt63 64 62 62 59 58 57 57 59 59 58 58 58
Altim29.77 29.79 29.78 29.78 29.77 29.77 29.77 29.76 29.75 29.75 29.74 29.74 29.76
VIS8 7 8 10 10 10 10 10 10 10 10 10 10
CIG250 250 250 250 250 49 250 250 250 250 250 250 250
CoverBKNBKNBKNBKNBKNBKNBKNOVCBKNBKNBKNBKNBKN
FltCatVFRVFRVFRVFRVFRVFRVFRVFRVFRVFRVFRVFRVFR
WX--------------------------
WDir0002502702400240200170220210220
WSpd0 0 3 6 7 5 0 7 7 7 5 5 8
WGst-- -- -- -- -- -- -- -- -- -- -- -- --
Raw hourly METARs
KMSP 231253Z 00000KT 8SM BKN250 21/17 A2977 RMK AO2 SLP076 T02110172
KMSP 231353Z 00000KT 7SM BKN250 23/18 A2979 RMK AO2 SLP081 T02280178
KMSP 231453Z VRB03KT 8SM FEW150 BKN250 25/17 A2978 RMK AO2 SLP078 T02500167 50003
KMSP 231553Z 25006KT 10SM SCT040 BKN250 25/17 A2978 RMK AO2 SLP079 T02500167
KMSP 231653Z 27007KT 10SM SCT043 BKN250 27/15 A2977 RMK AO2 SLP076 T02670150
KMSP 231753Z 24005KT 10SM BKN049 BKN250 27/14 A2977 RMK AO2 SLP077 T02670144 10267 20194 58001
KMSP 231853Z 00000KT 10SM SCT049 BKN250 27/14 A2977 RMK AO2 SLP075 T02670139
KMSP 231953Z 24007KT 10SM SCT050 OVC250 28/14 A2976 RMK AO2 SLP073 T02780139
KMSP 232053Z 20007KT 10SM SCT050 BKN250 27/15 A2975 RMK AO2 SLP070 T02670150 58007
KMSP 232153Z 17007KT 10SM SCT050 BKN250 27/15 A2975 RMK AO2 SLP068 T02720150
KMSP 232253Z 22005KT 10SM SCT050 BKN250 27/14 A2974 RMK AO2 SLP067 T02720144
KMSP 232353Z 21005KT 10SM FEW050 BKN250 27/14 A2974 RMK AO2 SLP066 T02670144 10278 20261 56004
KMSP 240053Z 22008KT 10SM FEW050 BKN250 26/14 A2976 RMK AO2 SLP072 T02610144



Page loaded:  01:20 UTC  |   06:20 PM Pacific  |   07:20 PM Mountain  |   08:20 PM Central  |   09:20 PM Eastern

 

ADVISORIES

FORECASTS

FORECASTS

OBSERVATIONS

USER TOOLS

ABOUT US